sensor_id;sensor_type;location;lat;lon;timestamp;P1;durP1;ratioP1;P2;durP2;ratioP2
44750;SDS011;30477;48.224;11.470;2022-09-09T00:04:05;4.15;;;2.45;;
44750;SDS011;30477;48.224;11.470;2022-09-09T00:09:46;2.97;;;2.28;;
44750;SDS011;30477;48.224;11.470;2022-09-09T00:15:22;2.87;;;2.40;;
44750;SDS011;30477;48.224;11.470;2022-09-09T00:20:57;3.92;;;2.33;;
44750;SDS011;30477;48.224;11.470;2022-09-09T00:23:39;10.13;;;2.40;;
44750;SDS011;30477;48.224;11.470;2022-09-09T00:26:12;3.55;;;1.92;;
44750;SDS011;30477;48.224;11.470;2022-09-09T00:28:46;5.80;;;2.35;;
44750;SDS011;30477;48.224;11.470;2022-09-09T00:31:18;6.10;;;2.35;;
44750;SDS011;30477;48.224;11.470;2022-09-09T00:33:50;3.47;;;2.13;;
44750;SDS011;30477;48.224;11.470;2022-09-09T00:36:18;6.43;;;2.15;;
44750;SDS011;30477;48.224;11.470;2022-09-09T00:38:51;6.25;;;2.00;;
44750;SDS011;30477;48.224;11.470;2022-09-09T00:41:31;2.58;;;2.00;;
44750;SDS011;30477;48.224;11.470;2022-09-09T00:44:21;2.97;;;1.88;;
44750;SDS011;30477;48.224;11.470;2022-09-09T00:47:09;2.95;;;2.03;;
44750;SDS011;30477;48.224;11.470;2022-09-09T00:52:39;5.47;;;1.75;;
44750;SDS011;30477;48.224;11.470;2022-09-09T00:55:19;7.35;;;2.67;;
44750;SDS011;30477;48.224;11.470;2022-09-09T00:57:52;3.85;;;1.90;;
44750;SDS011;30477;48.224;11.470;2022-09-09T01:11:03;2.75;;;2.17;;
44750;SDS011;30477;48.224;11.470;2022-09-09T01:13:33;2.60;;;2.00;;
44750;SDS011;30477;48.224;11.470;2022-09-09T01:16:01;2.72;;;1.80;;
44750;SDS011;30477;48.224;11.470;2022-09-09T01:18:29;4.13;;;2.08;;
44750;SDS011;30477;48.224;11.470;2022-09-09T01:23:44;2.40;;;1.70;;
44750;SDS011;30477;48.224;11.470;2022-09-09T01:26:26;3.10;;;2.03;;
44750;SDS011;30477;48.224;11.470;2022-09-09T01:28:57;4.90;;;2.70;;
44750;SDS011;30477;48.224;11.470;2022-09-09T01:31:24;4.23;;;2.40;;
44750;SDS011;30477;48.224;11.470;2022-09-09T01:33:53;2.75;;;2.20;;
44750;SDS011;30477;48.224;11.470;2022-09-09T01:39:31;6.43;;;2.50;;
44750;SDS011;30477;48.224;11.470;2022-09-09T01:42:01;3.45;;;2.13;;
44750;SDS011;30477;48.224;11.470;2022-09-09T01:44:28;5.05;;;2.60;;
44750;SDS011;30477;48.224;11.470;2022-09-09T01:46:55;5.40;;;2.97;;
44750;SDS011;30477;48.224;11.470;2022-09-09T01:49:20;4.80;;;2.40;;
44750;SDS011;30477;48.224;11.470;2022-09-09T01:51:48;3.38;;;2.67;;
44750;SDS011;30477;48.224;11.470;2022-09-09T01:54:17;5.25;;;2.85;;
44750;SDS011;30477;48.224;11.470;2022-09-09T01:56:47;4.55;;;2.50;;
44750;SDS011;30477;48.224;11.470;2022-09-09T02:02:19;5.03;;;2.33;;
44750;SDS011;30477;48.224;11.470;2022-09-09T02:04:56;5.10;;;2.55;;
44750;SDS011;30477;48.224;11.470;2022-09-09T02:07:38;5.22;;;2.95;;
44750;SDS011;30477;48.224;11.470;2022-09-09T02:10:40;3.25;;;2.70;;
44750;SDS011;30477;48.224;11.470;2022-09-09T02:13:17;3.13;;;2.42;;
44750;SDS011;30477;48.224;11.470;2022-09-09T02:18:17;4.53;;;2.70;;
44750;SDS011;30477;48.224;11.470;2022-09-09T02:20:49;5.78;;;2.65;;
44750;SDS011;30477;48.224;11.470;2022-09-09T02:23:16;4.32;;;2.50;;
44750;SDS011;30477;48.224;11.470;2022-09-09T02:25:42;2.85;;;2.47;;
44750;SDS011;30477;48.224;11.470;2022-09-09T02:28:09;2.83;;;2.17;;
44750;SDS011;30477;48.224;11.470;2022-09-09T02:30:37;2.60;;;2.35;;
44750;SDS011;30477;48.224;11.470;2022-09-09T02:33:04;7.32;;;2.50;;
44750;SDS011;30477;48.224;11.470;2022-09-09T02:35:32;4.32;;;2.33;;
44750;SDS011;30477;48.224;11.470;2022-09-09T02:38:03;4.00;;;2.67;;
44750;SDS011;30477;48.224;11.470;2022-09-09T02:40:32;2.63;;;2.35;;
44750;SDS011;30477;48.224;11.470;2022-09-09T02:42:58;5.17;;;2.57;;
44750;SDS011;30477;48.224;11.470;2022-09-09T02:45:25;3.97;;;2.22;;
44750;SDS011;30477;48.224;11.470;2022-09-09T02:53:14;3.83;;;2.38;;
44750;SDS011;30477;48.224;11.470;2022-09-09T02:58:18;7.03;;;2.70;;
44750;SDS011;30477;48.224;11.470;2022-09-09T03:00:46;4.90;;;2.38;;
44750;SDS011;30477;48.224;11.470;2022-09-09T03:03:12;4.68;;;2.22;;
44750;SDS011;30477;48.224;11.470;2022-09-09T03:05:38;4.47;;;2.57;;
44750;SDS011;30477;48.224;11.470;2022-09-09T03:08:03;7.23;;;3.00;;
44750;SDS011;30477;48.224;11.470;2022-09-09T03:10:30;3.88;;;2.45;;
44750;SDS011;30477;48.224;11.470;2022-09-09T03:15:22;5.40;;;2.90;;
44750;SDS011;30477;48.224;11.470;2022-09-09T03:17:47;4.37;;;2.10;;
44750;SDS011;30477;48.224;11.470;2022-09-09T03:20:12;5.73;;;1.63;;
44750;SDS011;30477;48.224;11.470;2022-09-09T03:22:38;4.23;;;1.90;;
44750;SDS011;30477;48.224;11.470;2022-09-09T03:25:03;9.80;;;2.23;;
44750;SDS011;30477;48.224;11.470;2022-09-09T03:27:29;4.07;;;2.00;;
44750;SDS011;30477;48.224;11.470;2022-09-09T03:29:54;7.10;;;2.30;;
44750;SDS011;30477;48.224;11.470;2022-09-09T03:32:21;2.33;;;1.80;;
44750;SDS011;30477;48.224;11.470;2022-09-09T03:34:47;2.45;;;2.08;;
44750;SDS011;30477;48.224;11.470;2022-09-09T03:37:15;2.95;;;2.30;;
44750;SDS011;30477;48.224;11.470;2022-09-09T03:39:42;7.10;;;2.33;;
44750;SDS011;30477;48.224;11.470;2022-09-09T03:42:07;4.87;;;1.80;;
44750;SDS011;30477;48.224;11.470;2022-09-09T03:44:32;3.80;;;1.80;;
44750;SDS011;30477;48.224;11.470;2022-09-09T03:46:58;2.80;;;1.80;;
44750;SDS011;30477;48.224;11.470;2022-09-09T03:49:25;4.45;;;1.77;;
44750;SDS011;30477;48.224;11.470;2022-09-09T03:51:53;4.70;;;2.33;;
44750;SDS011;30477;48.224;11.470;2022-09-09T03:54:19;6.78;;;2.10;;
44750;SDS011;30477;48.224;11.470;2022-09-09T03:56:44;4.07;;;2.00;;
44750;SDS011;30477;48.224;11.470;2022-09-09T03:59:10;5.60;;;2.28;;
44750;SDS011;30477;48.224;11.470;2022-09-09T04:01:35;6.57;;;2.50;;
44750;SDS011;30477;48.224;11.470;2022-09-09T04:04:01;3.20;;;1.80;;
44750;SDS011;30477;48.224;11.470;2022-09-09T04:06:27;2.50;;;1.88;;
44750;SDS011;30477;48.224;11.470;2022-09-09T04:08:53;4.05;;;1.98;;
44750;SDS011;30477;48.224;11.470;2022-09-09T04:11:18;2.67;;;1.80;;
44750;SDS011;30477;48.224;11.470;2022-09-09T04:13:44;4.18;;;2.17;;
44750;SDS011;30477;48.224;11.470;2022-09-09T04:16:10;4.47;;;2.10;;
44750;SDS011;30477;48.224;11.470;2022-09-09T04:18:38;3.92;;;2.10;;
44750;SDS011;30477;48.224;11.470;2022-09-09T04:21:04;4.72;;;2.28;;
44750;SDS011;30477;48.224;11.470;2022-09-09T04:23:31;2.83;;;1.92;;
44750;SDS011;30477;48.224;11.470;2022-09-09T04:25:59;3.20;;;2.05;;
44750;SDS011;30477;48.224;11.470;2022-09-09T04:28:28;4.60;;;2.25;;
44750;SDS011;30477;48.224;11.470;2022-09-09T04:30:55;5.38;;;2.33;;
44750;SDS011;30477;48.224;11.470;2022-09-09T04:33:22;4.13;;;2.78;;
44750;SDS011;30477;48.224;11.470;2022-09-09T04:35:50;3.35;;;2.28;;
44750;SDS011;30477;48.224;11.470;2022-09-09T04:38:18;4.85;;;2.42;;
44750;SDS011;30477;48.224;11.470;2022-09-09T04:40:45;8.70;;;2.97;;
44750;SDS011;30477;48.224;11.470;2022-09-09T04:43:11;4.28;;;2.72;;
44750;SDS011;30477;48.224;11.470;2022-09-09T04:45:37;4.87;;;2.90;;
44750;SDS011;30477;48.224;11.470;2022-09-09T04:48:02;3.33;;;2.20;;
44750;SDS011;30477;48.224;11.470;2022-09-09T04:50:28;2.40;;;1.90;;
44750;SDS011;30477;48.224;11.470;2022-09-09T04:52:53;4.13;;;2.10;;
44750;SDS011;30477;48.224;11.470;2022-09-09T04:55:19;3.17;;;1.87;;
44750;SDS011;30477;48.224;11.470;2022-09-09T04:57:44;4.10;;;1.83;;
44750;SDS011;30477;48.224;11.470;2022-09-09T05:00:10;7.60;;;2.13;;
44750;SDS011;30477;48.224;11.470;2022-09-09T05:02:39;6.63;;;3.20;;
44750;SDS011;30477;48.224;11.470;2022-09-09T05:05:05;9.82;;;6.60;;
44750;SDS011;30477;48.224;11.470;2022-09-09T05:07:31;9.68;;;6.57;;
44750;SDS011;30477;48.224;11.470;2022-09-09T05:09:57;6.82;;;4.65;;
44750;SDS011;30477;48.224;11.470;2022-09-09T05:12:23;6.35;;;3.08;;
44750;SDS011;30477;48.224;11.470;2022-09-09T05:14:50;5.03;;;2.30;;
44750;SDS011;30477;48.224;11.470;2022-09-09T05:17:16;2.53;;;1.83;;
44750;SDS011;30477;48.224;11.470;2022-09-09T05:19:42;3.53;;;2.63;;
44750;SDS011;30477;48.224;11.470;2022-09-09T05:22:08;4.43;;;2.08;;
44750;SDS011;30477;48.224;11.470;2022-09-09T05:24:33;3.93;;;2.40;;
44750;SDS011;30477;48.224;11.470;2022-09-09T05:26:58;3.87;;;2.03;;
44750;SDS011;30477;48.224;11.470;2022-09-09T05:29:26;6.72;;;2.10;;
44750;SDS011;30477;48.224;11.470;2022-09-09T05:31:52;3.78;;;2.22;;
44750;SDS011;30477;48.224;11.470;2022-09-09T05:34:17;3.30;;;2.10;;
44750;SDS011;30477;48.224;11.470;2022-09-09T05:36:43;8.60;;;3.03;;
44750;SDS011;30477;48.224;11.470;2022-09-09T05:39:08;4.23;;;2.23;;
44750;SDS011;30477;48.224;11.470;2022-09-09T05:41:34;4.70;;;2.10;;
44750;SDS011;30477;48.224;11.470;2022-09-09T05:44:01;6.75;;;2.58;;
44750;SDS011;30477;48.224;11.470;2022-09-09T05:46:26;2.22;;;1.95;;
44750;SDS011;30477;48.224;11.470;2022-09-09T05:48:52;7.17;;;2.40;;
44750;SDS011;30477;48.224;11.470;2022-09-09T05:51:19;4.03;;;2.35;;
44750;SDS011;30477;48.224;11.470;2022-09-09T05:53:46;6.97;;;2.03;;
44750;SDS011;30477;48.224;11.470;2022-09-09T05:58:39;6.63;;;2.40;;
44750;SDS011;30477;48.224;11.470;2022-09-09T06:01:12;4.45;;;2.38;;
44750;SDS011;30477;48.224;11.470;2022-09-09T06:03:39;5.82;;;2.60;;
44750;SDS011;30477;48.224;11.470;2022-09-09T06:06:06;4.78;;;2.50;;
44750;SDS011;30477;48.224;11.470;2022-09-09T06:08:34;8.02;;;2.85;;
44750;SDS011;30477;48.224;11.470;2022-09-09T06:11:06;5.95;;;3.75;;
44750;SDS011;30477;48.224;11.470;2022-09-09T06:13:39;4.28;;;2.75;;
44750;SDS011;30477;48.224;11.470;2022-09-09T06:16:05;7.00;;;3.07;;
44750;SDS011;30477;48.224;11.470;2022-09-09T06:18:33;6.80;;;2.50;;
44750;SDS011;30477;48.224;11.470;2022-09-09T06:20:59;5.27;;;2.33;;
44750;SDS011;30477;48.224;11.470;2022-09-09T06:23:27;5.82;;;2.25;;
44750;SDS011;30477;48.224;11.470;2022-09-09T06:26:03;5.88;;;2.42;;
44750;SDS011;30477;48.224;11.470;2022-09-09T06:28:33;7.13;;;2.35;;
44750;SDS011;30477;48.224;11.470;2022-09-09T06:30:59;2.95;;;2.05;;
44750;SDS011;30477;48.224;11.470;2022-09-09T06:33:26;6.80;;;3.20;;
44750;SDS011;30477;48.224;11.470;2022-09-09T06:35:52;6.70;;;2.90;;
44750;SDS011;30477;48.224;11.470;2022-09-09T06:38:18;7.05;;;2.90;;
44750;SDS011;30477;48.224;11.470;2022-09-09T06:40:50;5.93;;;2.97;;
44750;SDS011;30477;48.224;11.470;2022-09-09T06:43:19;6.22;;;3.33;;
44750;SDS011;30477;48.224;11.470;2022-09-09T06:45:52;7.18;;;2.90;;
44750;SDS011;30477;48.224;11.470;2022-09-09T06:48:25;5.97;;;2.08;;
44750;SDS011;30477;48.224;11.470;2022-09-09T06:51:03;5.93;;;2.45;;
44750;SDS011;30477;48.224;11.470;2022-09-09T06:53:29;4.57;;;2.30;;
44750;SDS011;30477;48.224;11.470;2022-09-09T06:55:54;3.70;;;2.22;;
44750;SDS011;30477;48.224;11.470;2022-09-09T06:58:20;4.53;;;1.80;;
44750;SDS011;30477;48.224;11.470;2022-09-09T07:00:47;7.38;;;2.13;;
44750;SDS011;30477;48.224;11.470;2022-09-09T07:03:13;6.07;;;2.60;;
44750;SDS011;30477;48.224;11.470;2022-09-09T07:05:38;5.00;;;1.90;;
44750;SDS011;30477;48.224;11.470;2022-09-09T07:08:04;4.43;;;2.40;;
44750;SDS011;30477;48.224;11.470;2022-09-09T07:10:29;4.30;;;2.23;;
44750;SDS011;30477;48.224;11.470;2022-09-09T07:12:54;4.10;;;2.70;;
44750;SDS011;30477;48.224;11.470;2022-09-09T07:15:20;6.00;;;2.80;;
44750;SDS011;30477;48.224;11.470;2022-09-09T07:17:47;8.52;;;2.85;;
44750;SDS011;30477;48.224;11.470;2022-09-09T07:20:14;6.45;;;3.00;;
44750;SDS011;30477;48.224;11.470;2022-09-09T07:22:40;4.45;;;2.72;;
44750;SDS011;30477;48.224;11.470;2022-09-09T07:25:06;4.13;;;2.28;;
44750;SDS011;30477;48.224;11.470;2022-09-09T07:27:32;5.30;;;2.63;;
44750;SDS011;30477;48.224;11.470;2022-09-09T07:29:57;4.27;;;2.83;;
44750;SDS011;30477;48.224;11.470;2022-09-09T07:32:22;4.47;;;2.30;;
44750;SDS011;30477;48.224;11.470;2022-09-09T07:34:48;4.33;;;2.80;;
44750;SDS011;30477;48.224;11.470;2022-09-09T07:37:13;5.10;;;2.83;;
44750;SDS011;30477;48.224;11.470;2022-09-09T07:39:39;7.10;;;2.90;;
44750;SDS011;30477;48.224;11.470;2022-09-09T07:42:05;5.35;;;2.80;;
44750;SDS011;30477;48.224;11.470;2022-09-09T07:44:30;4.57;;;2.47;;
44750;SDS011;30477;48.224;11.470;2022-09-09T07:46:59;5.50;;;2.20;;
44750;SDS011;30477;48.224;11.470;2022-09-09T07:49:25;3.13;;;2.30;;
44750;SDS011;30477;48.224;11.470;2022-09-09T07:51:50;4.57;;;2.60;;
44750;SDS011;30477;48.224;11.470;2022-09-09T07:54:16;3.00;;;2.20;;
44750;SDS011;30477;48.224;11.470;2022-09-09T07:56:45;5.30;;;2.20;;
44750;SDS011;30477;48.224;11.470;2022-09-09T07:59:11;4.97;;;2.05;;
44750;SDS011;30477;48.224;11.470;2022-09-09T08:01:38;3.90;;;2.50;;
44750;SDS011;30477;48.224;11.470;2022-09-09T08:04:06;4.47;;;2.75;;
44750;SDS011;30477;48.224;11.470;2022-09-09T08:06:37;8.32;;;2.78;;
44750;SDS011;30477;48.224;11.470;2022-09-09T08:09:05;4.53;;;2.63;;
44750;SDS011;30477;48.224;11.470;2022-09-09T08:11:32;5.32;;;2.80;;
44750;SDS011;30477;48.224;11.470;2022-09-09T08:13:59;5.35;;;2.72;;
44750;SDS011;30477;48.224;11.470;2022-09-09T08:16:26;8.25;;;3.10;;
44750;SDS011;30477;48.224;11.470;2022-09-09T08:18:53;4.53;;;2.78;;
44750;SDS011;30477;48.224;11.470;2022-09-09T08:21:22;8.80;;;2.92;;
44750;SDS011;30477;48.224;11.470;2022-09-09T08:23:50;5.40;;;2.97;;
44750;SDS011;30477;48.224;11.470;2022-09-09T08:26:21;5.65;;;2.75;;
44750;SDS011;30477;48.224;11.470;2022-09-09T08:28:52;3.58;;;2.88;;
44750;SDS011;30477;48.224;11.470;2022-09-09T08:31:20;8.10;;;3.30;;
44750;SDS011;30477;48.224;11.470;2022-09-09T08:33:47;5.57;;;3.03;;
44750;SDS011;30477;48.224;11.470;2022-09-09T08:36:14;5.43;;;2.53;;
44750;SDS011;30477;48.224;11.470;2022-09-09T08:38:42;7.55;;;2.45;;
44750;SDS011;30477;48.224;11.470;2022-09-09T08:52:39;4.35;;;2.65;;
44750;SDS011;30477;48.224;11.470;2022-09-09T08:57:58;3.72;;;2.83;;
44750;SDS011;30477;48.224;11.470;2022-09-09T09:00:40;4.50;;;2.78;;
44750;SDS011;30477;48.224;11.470;2022-09-09T09:03:22;4.57;;;3.35;;
44750;SDS011;30477;48.224;11.470;2022-09-09T09:06:21;5.78;;;3.13;;
44750;SDS011;30477;48.224;11.470;2022-09-09T09:14:40;7.50;;;2.45;;
44750;SDS011;30477;48.224;11.470;2022-09-09T09:17:10;3.47;;;2.40;;
44750;SDS011;30477;48.224;11.470;2022-09-09T09:19:39;6.22;;;2.60;;
44750;SDS011;30477;48.224;11.470;2022-09-09T09:22:11;3.22;;;2.03;;
44750;SDS011;30477;48.224;11.470;2022-09-09T09:24:51;7.50;;;3.25;;
44750;SDS011;30477;48.224;11.470;2022-09-09T09:30:14;4.40;;;2.53;;
44750;SDS011;30477;48.224;11.470;2022-09-09T09:32:44;5.50;;;2.38;;
44750;SDS011;30477;48.224;11.470;2022-09-09T09:35:19;4.43;;;2.20;;
44750;SDS011;30477;48.224;11.470;2022-09-09T09:37:44;4.83;;;2.10;;
44750;SDS011;30477;48.224;11.470;2022-09-09T09:40:12;4.15;;;2.05;;
44750;SDS011;30477;48.224;11.470;2022-09-09T09:42:56;5.60;;;2.00;;
44750;SDS011;30477;48.224;11.470;2022-09-09T09:45:32;6.72;;;2.40;;
44750;SDS011;30477;48.224;11.470;2022-09-09T09:48:10;10.38;;;4.63;;
44750;SDS011;30477;48.224;11.470;2022-09-09T09:50:49;5.15;;;3.05;;
44750;SDS011;30477;48.224;11.470;2022-09-09T09:53:24;2.92;;;2.30;;
44750;SDS011;30477;48.224;11.470;2022-09-09T09:55:55;3.22;;;2.20;;
44750;SDS011;30477;48.224;11.470;2022-09-09T09:58:20;3.80;;;1.90;;
44750;SDS011;30477;48.224;11.470;2022-09-09T10:00:49;2.13;;;1.77;;
44750;SDS011;30477;48.224;11.470;2022-09-09T10:03:38;4.22;;;2.15;;
44750;SDS011;30477;48.224;11.470;2022-09-09T10:06:05;4.47;;;2.28;;
44750;SDS011;30477;48.224;11.470;2022-09-09T10:08:32;2.63;;;1.58;;
44750;SDS011;30477;48.224;11.470;2022-09-09T10:11:02;4.80;;;1.90;;
44750;SDS011;30477;48.224;11.470;2022-09-09T10:13:46;6.43;;;2.25;;
44750;SDS011;30477;48.224;11.470;2022-09-09T10:19:10;3.20;;;1.95;;
44750;SDS011;30477;48.224;11.470;2022-09-09T10:26:51;4.63;;;2.45;;
44750;SDS011;30477;48.224;11.470;2022-09-09T10:38:11;4.93;;;1.70;;
44750;SDS011;30477;48.224;11.470;2022-09-09T10:40:58;4.90;;;2.05;;
44750;SDS011;30477;48.224;11.470;2022-09-09T10:46:33;5.07;;;2.50;;
44750;SDS011;30477;48.224;11.470;2022-09-09T11:00:03;3.20;;;2.10;;
44750;SDS011;30477;48.224;11.470;2022-09-09T11:02:31;6.63;;;2.38;;
44750;SDS011;30477;48.224;11.470;2022-09-09T11:07:38;5.25;;;2.13;;
44750;SDS011;30477;48.224;11.470;2022-09-09T11:10:26;4.68;;;1.92;;
44750;SDS011;30477;48.224;11.470;2022-09-09T11:13:08;4.45;;;1.98;;
44750;SDS011;30477;48.224;11.470;2022-09-09T11:15:52;3.55;;;1.92;;
44750;SDS011;30477;48.224;11.470;2022-09-09T11:18:25;5.78;;;3.75;;
44750;SDS011;30477;48.224;11.470;2022-09-09T11:20:55;9.27;;;6.32;;
44750;SDS011;30477;48.224;11.470;2022-09-09T11:23:36;3.05;;;1.50;;
44750;SDS011;30477;48.224;11.470;2022-09-09T11:26:06;5.32;;;2.13;;
44750;SDS011;30477;48.224;11.470;2022-09-09T11:31:36;3.65;;;1.77;;
44750;SDS011;30477;48.224;11.470;2022-09-09T11:37:08;5.20;;;1.60;;
44750;SDS011;30477;48.224;11.470;2022-09-09T11:42:44;4.82;;;2.00;;
44750;SDS011;30477;48.224;11.470;2022-09-09T11:45:30;4.68;;;1.63;;
44750;SDS011;30477;48.224;11.470;2022-09-09T11:47:59;3.88;;;1.48;;
44750;SDS011;30477;48.224;11.470;2022-09-09T11:50:27;4.05;;;1.63;;
44750;SDS011;30477;48.224;11.470;2022-09-09T11:55:38;4.95;;;1.75;;
44750;SDS011;30477;48.224;11.470;2022-09-09T11:58:05;3.60;;;1.77;;
44750;SDS011;30477;48.224;11.470;2022-09-09T12:00:41;4.10;;;1.58;;
44750;SDS011;30477;48.224;11.470;2022-09-09T12:05:59;2.53;;;1.23;;
44750;SDS011;30477;48.224;11.470;2022-09-09T12:08:36;2.58;;;1.23;;
44750;SDS011;30477;48.224;11.470;2022-09-09T12:11:05;2.88;;;1.30;;
44750;SDS011;30477;48.224;11.470;2022-09-09T12:13:31;6.18;;;1.65;;
44750;SDS011;30477;48.224;11.470;2022-09-09T12:15:58;3.87;;;1.60;;
44750;SDS011;30477;48.224;11.470;2022-09-09T12:21:19;5.97;;;2.00;;
44750;SDS011;30477;48.224;11.470;2022-09-09T12:23:50;3.17;;;1.40;;
44750;SDS011;30477;48.224;11.470;2022-09-09T12:26:26;3.45;;;1.30;;
44750;SDS011;30477;48.224;11.470;2022-09-09T12:31:40;4.07;;;1.50;;
44750;SDS011;30477;48.224;11.470;2022-09-09T12:34:40;4.53;;;1.65;;
44750;SDS011;30477;48.224;11.470;2022-09-09T12:37:35;4.13;;;1.77;;
44750;SDS011;30477;48.224;11.470;2022-09-09T12:40:04;3.80;;;1.63;;
44750;SDS011;30477;48.224;11.470;2022-09-09T12:45:17;5.35;;;1.70;;
44750;SDS011;30477;48.224;11.470;2022-09-09T12:47:49;3.75;;;1.60;;
44750;SDS011;30477;48.224;11.470;2022-09-09T12:50:20;3.65;;;1.20;;
44750;SDS011;30477;48.224;11.470;2022-09-09T12:52:50;1.77;;;0.90;;
44750;SDS011;30477;48.224;11.470;2022-09-09T12:55:20;3.17;;;1.40;;
44750;SDS011;30477;48.224;11.470;2022-09-09T12:57:50;3.28;;;1.10;;
44750;SDS011;30477;48.224;11.470;2022-09-09T13:00:25;4.15;;;1.25;;
44750;SDS011;30477;48.224;11.470;2022-09-09T13:02:58;1.75;;;1.08;;
44750;SDS011;30477;48.224;11.470;2022-09-09T13:08:00;4.00;;;1.25;;
44750;SDS011;30477;48.224;11.470;2022-09-09T13:10:31;1.77;;;1.17;;
44750;SDS011;30477;48.224;11.470;2022-09-09T13:13:00;4.13;;;1.27;;
44750;SDS011;30477;48.224;11.470;2022-09-09T13:17:54;3.77;;;1.50;;
44750;SDS011;30477;48.224;11.470;2022-09-09T13:20:22;2.45;;;1.10;;
44750;SDS011;30477;48.224;11.470;2022-09-09T13:22:49;2.20;;;1.10;;
44750;SDS011;30477;48.224;11.470;2022-09-09T13:30:20;2.83;;;1.10;;
44750;SDS011;30477;48.224;11.470;2022-09-09T13:33:39;3.35;;;1.00;;
44750;SDS011;30477;48.224;11.470;2022-09-09T13:41:33;1.80;;;1.33;;
44750;SDS011;30477;48.224;11.470;2022-09-09T13:44:01;4.07;;;1.83;;
44750;SDS011;30477;48.224;11.470;2022-09-09T13:46:35;6.13;;;1.77;;
44750;SDS011;30477;48.224;11.470;2022-09-09T13:51:40;2.35;;;1.05;;
44750;SDS011;30477;48.224;11.470;2022-09-09T13:54:09;3.35;;;1.20;;
44750;SDS011;30477;48.224;11.470;2022-09-09T13:56:37;3.58;;;1.10;;
44750;SDS011;30477;48.224;11.470;2022-09-09T13:59:04;3.30;;;1.55;;
44750;SDS011;30477;48.224;11.470;2022-09-09T14:01:30;2.22;;;0.90;;
44750;SDS011;30477;48.224;11.470;2022-09-09T14:03:56;2.42;;;1.00;;
44750;SDS011;30477;48.224;11.470;2022-09-09T14:06:21;2.28;;;1.38;;
44750;SDS011;30477;48.224;11.470;2022-09-09T14:08:50;2.53;;;1.17;;
44750;SDS011;30477;48.224;11.470;2022-09-09T14:11:16;2.08;;;1.10;;
44750;SDS011;30477;48.224;11.470;2022-09-09T14:13:43;5.05;;;1.73;;
44750;SDS011;30477;48.224;11.470;2022-09-09T14:16:08;2.42;;;1.30;;
44750;SDS011;30477;48.224;11.470;2022-09-09T14:18:34;3.70;;;1.48;;
44750;SDS011;30477;48.224;11.470;2022-09-09T14:21:00;1.77;;;1.20;;
44750;SDS011;30477;48.224;11.470;2022-09-09T14:23:27;2.70;;;1.20;;
44750;SDS011;30477;48.224;11.470;2022-09-09T14:25:54;3.50;;;2.63;;
44750;SDS011;30477;48.224;11.470;2022-09-09T14:28:20;2.63;;;1.00;;
44750;SDS011;30477;48.224;11.470;2022-09-09T14:30:45;2.03;;;0.83;;
44750;SDS011;30477;48.224;11.470;2022-09-09T14:33:12;1.35;;;0.85;;
44750;SDS011;30477;48.224;11.470;2022-09-09T14:35:39;2.58;;;0.95;;
44750;SDS011;30477;48.224;11.470;2022-09-09T14:38:06;2.08;;;0.90;;
44750;SDS011;30477;48.224;11.470;2022-09-09T14:42:59;3.05;;;1.55;;
44750;SDS011;30477;48.224;11.470;2022-09-09T14:45:24;3.65;;;0.90;;
44750;SDS011;30477;48.224;11.470;2022-09-09T14:47:50;2.27;;;0.87;;
44750;SDS011;30477;48.224;11.470;2022-09-09T14:50:17;2.28;;;0.98;;
44750;SDS011;30477;48.224;11.470;2022-09-09T14:52:43;3.28;;;1.23;;
44750;SDS011;30477;48.224;11.470;2022-09-09T14:55:08;2.17;;;0.93;;
44750;SDS011;30477;48.224;11.470;2022-09-09T14:57:34;2.60;;;1.50;;
44750;SDS011;30477;48.224;11.470;2022-09-09T15:00:00;1.08;;;0.82;;
44750;SDS011;30477;48.224;11.470;2022-09-09T15:02:27;2.42;;;1.05;;
44750;SDS011;30477;48.224;11.470;2022-09-09T15:04:52;2.17;;;1.00;;
44750;SDS011;30477;48.224;11.470;2022-09-09T15:07:22;1.98;;;0.90;;
44750;SDS011;30477;48.224;11.470;2022-09-09T15:09:48;2.28;;;0.95;;
44750;SDS011;30477;48.224;11.470;2022-09-09T15:12:13;4.18;;;1.00;;
44750;SDS011;30477;48.224;11.470;2022-09-09T15:14:39;2.20;;;1.33;;
44750;SDS011;30477;48.224;11.470;2022-09-09T15:17:04;3.60;;;1.43;;
44750;SDS011;30477;48.224;11.470;2022-09-09T15:19:30;2.43;;;1.10;;
44750;SDS011;30477;48.224;11.470;2022-09-09T15:21:55;3.87;;;0.90;;
44750;SDS011;30477;48.224;11.470;2022-09-09T15:24:21;1.52;;;1.00;;
44750;SDS011;30477;48.224;11.470;2022-09-09T15:26:47;2.33;;;1.10;;
44750;SDS011;30477;48.224;11.470;2022-09-09T15:29:12;3.97;;;1.07;;
44750;SDS011;30477;48.224;11.470;2022-09-09T15:31:38;1.67;;;0.93;;
44750;SDS011;30477;48.224;11.470;2022-09-09T15:34:04;1.87;;;1.00;;
44750;SDS011;30477;48.224;11.470;2022-09-09T15:36:32;3.85;;;1.10;;
44750;SDS011;30477;48.224;11.470;2022-09-09T15:39:03;2.47;;;1.00;;
44750;SDS011;30477;48.224;11.470;2022-09-09T15:41:30;3.05;;;1.33;;
44750;SDS011;30477;48.224;11.470;2022-09-09T15:43:59;2.85;;;1.40;;
44750;SDS011;30477;48.224;11.470;2022-09-09T15:46:31;2.10;;;1.10;;
44750;SDS011;30477;48.224;11.470;2022-09-09T15:49:22;2.40;;;1.20;;
44750;SDS011;30477;48.224;11.470;2022-09-09T15:51:53;2.63;;;1.20;;
44750;SDS011;30477;48.224;11.470;2022-09-09T15:54:20;4.38;;;1.30;;
44750;SDS011;30477;48.224;11.470;2022-09-09T15:56:50;3.00;;;1.10;;
44750;SDS011;30477;48.224;11.470;2022-09-09T15:59:17;2.78;;;1.05;;
44750;SDS011;30477;48.224;11.470;2022-09-09T16:01:43;5.78;;;1.35;;
44750;SDS011;30477;48.224;11.470;2022-09-09T16:04:09;2.57;;;1.30;;
44750;SDS011;30477;48.224;11.470;2022-09-09T16:06:34;1.85;;;1.08;;
44750;SDS011;30477;48.224;11.470;2022-09-09T16:09:01;5.87;;;1.00;;
44750;SDS011;30477;48.224;11.470;2022-09-09T16:11:30;6.15;;;1.30;;
44750;SDS011;30477;48.224;11.470;2022-09-09T16:13:57;2.38;;;0.98;;
44750;SDS011;30477;48.224;11.470;2022-09-09T16:16:24;2.90;;;1.40;;
44750;SDS011;30477;48.224;11.470;2022-09-09T16:18:52;4.15;;;1.27;;
44750;SDS011;30477;48.224;11.470;2022-09-09T16:21:23;4.43;;;1.30;;
44750;SDS011;30477;48.224;11.470;2022-09-09T16:23:51;2.35;;;1.15;;
44750;SDS011;30477;48.224;11.470;2022-09-09T16:26:18;3.33;;;1.30;;
44750;SDS011;30477;48.224;11.470;2022-09-09T16:31:12;2.35;;;1.00;;
44750;SDS011;30477;48.224;11.470;2022-09-09T16:33:39;2.45;;;1.30;;
44750;SDS011;30477;48.224;11.470;2022-09-09T16:38:32;4.00;;;1.23;;
44750;SDS011;30477;48.224;11.470;2022-09-09T16:40:59;2.88;;;1.55;;
44750;SDS011;30477;48.224;11.470;2022-09-09T16:43:25;4.35;;;1.40;;
44750;SDS011;30477;48.224;11.470;2022-09-09T16:45:50;3.35;;;1.50;;
44750;SDS011;30477;48.224;11.470;2022-09-09T16:48:15;2.83;;;1.30;;
44750;SDS011;30477;48.224;11.470;2022-09-09T16:50:41;4.80;;;1.77;;
44750;SDS011;30477;48.224;11.470;2022-09-09T16:53:06;2.53;;;1.33;;
44750;SDS011;30477;48.224;11.470;2022-09-09T16:55:33;3.00;;;1.50;;
44750;SDS011;30477;48.224;11.470;2022-09-09T16:58:02;2.70;;;1.55;;
44750;SDS011;30477;48.224;11.470;2022-09-09T17:00:28;4.07;;;1.67;;
44750;SDS011;30477;48.224;11.470;2022-09-09T17:02:53;3.17;;;1.40;;
44750;SDS011;30477;48.224;11.470;2022-09-09T17:05:18;2.27;;;1.40;;
44750;SDS011;30477;48.224;11.470;2022-09-09T17:07:44;2.03;;;1.50;;
44750;SDS011;30477;48.224;11.470;2022-09-09T17:10:09;3.07;;;1.20;;
44750;SDS011;30477;48.224;11.470;2022-09-09T17:12:34;3.10;;;1.50;;
44750;SDS011;30477;48.224;11.470;2022-09-09T17:15:00;3.33;;;1.90;;
44750;SDS011;30477;48.224;11.470;2022-09-09T17:17:28;3.40;;;1.67;;
44750;SDS011;30477;48.224;11.470;2022-09-09T17:19:53;4.07;;;1.98;;